Time;durP1;ratioP1;P1;durP2;ratioP2;P2;SDS_P1;SDS_P2;PMS_P1;PMS_P2;Temp;Humidity;BMP_temperature;BMP_pressure;BME280_temperature;BME280_humidity;BME280_pressure;Samples;Min_cycle;Max_cycle;Signal;HPM_P1;HPM_P2
2024/02/04 00:01:27;;;;;;;229.63;62.07;;;;;;;;;;5092103;28;20613;-44
2024/02/04 00:03:53;;;;;;;230.50;60.63;;;;;;;;;;5091962;28;20407;-44
2024/02/04 00:06:18;;;;;;;231.23;62.17;;;;;;;;;;5091979;28;20412;-43
2024/02/04 00:08:44;;;;;;;232.87;62.07;;;;;;;;;;5092067;28;20468;-43
2024/02/04 00:11:11;;;;;;;232.87;63.40;;;;;;;;;;5091836;28;20427;-44
2024/02/04 00:13:38;;;;;;;232.57;62.75;;;;;;;;;;5086163;28;20403;-43
2024/02/04 00:16:04;;;;;;;231.18;61.22;;;;;;;;;;5081482;28;20240;-44
2024/02/04 00:18:30;;;;;;;229.57;57.90;;;;;;;;;;5087052;28;20177;-44
2024/02/04 00:20:56;;;;;;;229.93;60.07;;;;;;;;;;5084162;28;20165;-44
2024/02/04 00:23:22;;;;;;;230.47;58.80;;;;;;;;;;5083248;28;20506;-44
2024/02/04 00:25:48;;;;;;;229.40;58.70;;;;;;;;;;5083215;28;20474;-45
2024/02/04 00:28:14;;;;;;;230.43;60.00;;;;;;;;;;5084404;28;20415;-44
2024/02/04 00:30:40;;;;;;;230.07;59.50;;;;;;;;;;5083634;28;20407;-44
2024/02/04 00:33:06;;;;;;;229.40;60.13;;;;;;;;;;5083245;28;20420;-44
2024/02/04 00:35:32;;;;;;;231.07;60.67;;;;;;;;;;5086533;28;20467;-44
2024/02/04 00:37:58;;;;;;;228.35;58.35;;;;;;;;;;5088011;28;20680;-45
2024/02/04 00:40:24;;;;;;;229.45;59.80;;;;;;;;;;5083448;28;20173;-46
2024/02/04 00:42:50;;;;;;;227.60;56.90;;;;;;;;;;5084052;28;20197;-44
2024/02/04 00:45:16;;;;;;;229.23;58.70;;;;;;;;;;5082958;28;20196;-44
2024/02/04 00:47:42;;;;;;;229.43;58.50;;;;;;;;;;5081772;28;20468;-44
2024/02/04 00:50:08;;;;;;;226.93;56.77;;;;;;;;;;5071868;28;20281;-43
2024/02/04 00:52:34;;;;;;;229.18;59.00;;;;;;;;;;5079307;28;20438;-44
2024/02/04 00:55:00;;;;;;;229.33;59.27;;;;;;;;;;5090743;28;20181;-44
2024/02/04 00:57:26;;;;;;;230.90;61.23;;;;;;;;;;5083559;28;20997;-44
2024/02/04 00:59:52;;;;;;;228.53;58.87;;;;;;;;;;5077375;28;20790;-44
2024/02/04 01:02:18;;;;;;;230.43;60.05;;;;;;;;;;5090221;28;20423;-44
2024/02/04 01:04:44;;;;;;;230.40;59.07;;;;;;;;;;5086978;28;20174;-44
2024/02/04 01:07:10;;;;;;;231.23;59.10;;;;;;;;;;5086125;28;20404;-44
2024/02/04 01:09:36;;;;;;;228.97;59.23;;;;;;;;;;5081499;28;20922;-44
2024/02/04 01:12:03;;;;;;;227.23;56.07;;;;;;;;;;5084977;28;21027;-44
2024/02/04 01:14:29;;;;;;;229.85;58.20;;;;;;;;;;5090605;28;20412;-44
2024/02/04 01:16:55;;;;;;;228.77;57.13;;;;;;;;;;5091611;28;20221;-44
2024/02/04 01:19:20;;;;;;;230.73;59.47;;;;;;;;;;5086751;28;20461;-44
2024/02/04 01:21:46;;;;;;;226.93;56.87;;;;;;;;;;5087011;28;20427;-44
2024/02/04 01:24:12;;;;;;;225.67;55.70;;;;;;;;;;5087008;28;20454;-44
2024/02/04 01:26:38;;;;;;;226.67;56.30;;;;;;;;;;5086771;28;20399;-44
2024/02/04 01:29:04;;;;;;;228.33;57.17;;;;;;;;;;5084337;28;20452;-43
2024/02/04 01:31:30;;;;;;;227.37;56.87;;;;;;;;;;5087720;28;20467;-44
2024/02/04 01:33:56;;;;;;;228.27;56.53;;;;;;;;;;5079927;28;20421;-45
2024/02/04 01:36:22;;;;;;;230.80;59.65;;;;;;;;;;5093559;28;20276;-44
2024/02/04 01:38:48;;;;;;;225.93;56.10;;;;;;;;;;5086846;28;20250;-44
2024/02/04 01:41:14;;;;;;;227.80;58.08;;;;;;;;;;5086358;28;20960;-43
2024/02/04 01:43:41;;;;;;;229.13;58.33;;;;;;;;;;5086272;28;20633;-44
2024/02/04 01:46:08;;;;;;;230.13;58.92;;;;;;;;;;5086323;28;20173;-44
2024/02/04 01:48:34;;;;;;;229.23;57.83;;;;;;;;;;5089475;28;20177;-44
2024/02/04 01:51:00;;;;;;;229.53;59.30;;;;;;;;;;5088491;28;20261;-44
2024/02/04 01:53:27;;;;;;;238.10;67.63;;;;;;;;;;5090346;28;20896;-44
2024/02/04 01:55:54;;;;;;;229.98;59.13;;;;;;;;;;5090655;28;20209;-44
2024/02/04 01:58:20;;;;;;;227.48;56.97;;;;;;;;;;5086403;28;20553;-44
2024/02/04 02:00:46;;;;;;;232.37;61.13;;;;;;;;;;5085652;28;20193;-44
2024/02/04 02:03:13;;;;;;;229.48;59.38;;;;;;;;;;5085386;28;20473;-43
2024/02/04 02:05:40;;;;;;;228.40;58.40;;;;;;;;;;5087399;28;20177;-44
2024/02/04 02:08:06;;;;;;;230.35;59.03;;;;;;;;;;5083042;28;20178;-44
2024/02/04 02:10:32;;;;;;;226.38;56.42;;;;;;;;;;5089125;28;20601;-45
2024/02/04 02:13:07;;;;;;;227.73;57.33;;;;;;;;;;5090457;28;20201;-46
2024/02/04 02:15:36;;;;;;;229.55;60.15;;;;;;;;;;5086862;28;20653;-45
2024/02/04 02:18:08;;;;;;;227.88;57.90;;;;;;;;;;5085594;28;20256;-44
2024/02/04 02:20:42;;;;;;;231.20;60.00;;;;;;;;;;5085273;28;20177;-45
2024/02/04 02:23:12;;;;;;;227.00;58.20;;;;;;;;;;5086235;28;20185;-44
2024/02/04 02:25:38;;;;;;;227.95;57.90;;;;;;;;;;5085587;28;20166;-44
2024/02/04 02:28:04;;;;;;;227.65;57.75;;;;;;;;;;5086061;28;20664;-45
2024/02/04 02:30:30;;;;;;;230.05;59.22;;;;;;;;;;5089555;28;20174;-44
2024/02/04 02:32:57;;;;;;;228.67;58.43;;;;;;;;;;5090701;28;20574;-44
2024/02/04 02:35:23;;;;;;;227.65;57.30;;;;;;;;;;5070169;28;20432;-44
2024/02/04 02:37:52;;;;;;;228.82;59.20;;;;;;;;;;5086667;28;20201;-44
2024/02/04 02:40:33;;;;;;;228.70;58.03;;;;;;;;;;5085776;28;20433;-44
2024/02/04 02:43:02;;;;;;;226.05;56.80;;;;;;;;;;5085403;28;20213;-44
2024/02/04 02:45:28;;;;;;;229.52;58.55;;;;;;;;;;5085282;28;20162;-45
2024/02/04 02:47:55;;;;;;;229.52;58.65;;;;;;;;;;5085044;28;20170;-44
2024/02/04 02:50:21;;;;;;;226.95;58.08;;;;;;;;;;5080748;28;20170;-45
2024/02/04 02:52:47;;;;;;;228.27;58.45;;;;;;;;;;5073762;28;20206;-44
2024/02/04 02:55:13;;;;;;;228.52;58.60;;;;;;;;;;5089713;28;20180;-44
2024/02/04 02:57:39;;;;;;;227.63;57.93;;;;;;;;;;5083219;28;20202;-44
2024/02/04 03:00:06;;;;;;;229.55;58.10;;;;;;;;;;5078935;28;20427;-44
2024/02/04 03:02:32;;;;;;;226.30;56.13;;;;;;;;;;5086010;28;20185;-45
2024/02/04 03:04:58;;;;;;;229.35;59.28;;;;;;;;;;5086076;28;20199;-46
2024/02/04 03:07:24;;;;;;;227.03;57.20;;;;;;;;;;5083332;28;20169;-44
2024/02/04 03:09:50;;;;;;;228.27;58.20;;;;;;;;;;5076019;28;20405;-44
2024/02/04 03:12:17;;;;;;;227.37;56.83;;;;;;;;;;5085620;28;20517;-44
2024/02/04 03:14:43;;;;;;;228.40;59.58;;;;;;;;;;5087660;28;20429;-44
2024/02/04 03:17:09;;;;;;;229.37;59.67;;;;;;;;;;5084403;28;20669;-45
2024/02/04 03:19:35;;;;;;;226.35;56.42;;;;;;;;;;5085200;28;20404;-45
2024/02/04 03:22:01;;;;;;;226.68;57.20;;;;;;;;;;5084384;28;20674;-44
2024/02/04 03:24:27;;;;;;;229.63;59.77;;;;;;;;;;5084422;28;20166;-45
2024/02/04 03:26:53;;;;;;;227.40;59.17;;;;;;;;;;5085411;28;20443;-44
2024/02/04 03:29:19;;;;;;;227.67;59.20;;;;;;;;;;5089093;28;20538;-43
2024/02/04 03:31:45;;;;;;;226.60;58.05;;;;;;;;;;5087322;28;20431;-44
2024/02/04 03:34:11;;;;;;;224.48;56.08;;;;;;;;;;5074266;28;20590;-45
2024/02/04 03:36:38;;;;;;;228.27;59.47;;;;;;;;;;5080825;28;20283;-45
2024/02/04 03:39:04;;;;;;;226.40;57.15;;;;;;;;;;5084437;28;20553;-44
2024/02/04 03:41:30;;;;;;;228.57;58.80;;;;;;;;;;5082284;28;20217;-44
2024/02/04 03:43:56;;;;;;;229.48;59.10;;;;;;;;;;5080484;28;20417;-44
2024/02/04 03:46:22;;;;;;;226.87;58.97;;;;;;;;;;5088984;28;20178;-44
2024/02/04 03:48:48;;;;;;;229.07;58.63;;;;;;;;;;5081602;28;20448;-44
2024/02/04 03:51:17;;;;;;;228.30;58.07;;;;;;;;;;5088481;28;20729;-45
2024/02/04 03:53:44;;;;;;;228.50;58.45;;;;;;;;;;5088403;28;20412;-44
2024/02/04 03:56:10;;;;;;;228.57;58.15;;;;;;;;;;5083964;28;20197;-45
2024/02/04 03:58:36;;;;;;;229.85;59.55;;;;;;;;;;5084225;28;20252;-45
2024/02/04 04:01:02;;;;;;;227.57;57.23;;;;;;;;;;5084640;28;20222;-44
2024/02/04 04:03:28;;;;;;;232.37;62.10;;;;;;;;;;5083849;28;20400;-44
2024/02/04 04:05:54;;;;;;;231.33;60.83;;;;;;;;;;5084355;28;20440;-44
2024/02/04 04:08:20;;;;;;;230.32;59.97;;;;;;;;;;5088950;28;20404;-45
2024/02/04 04:10:46;;;;;;;229.00;59.92;;;;;;;;;;5087517;28;20178;-44
2024/02/04 04:13:12;;;;;;;233.77;61.58;;;;;;;;;;5083847;28;20205;-45
2024/02/04 04:15:42;;;;;;;230.10;60.42;;;;;;;;;;5084190;28;20641;-44
2024/02/04 04:18:10;;;;;;;226.50;57.40;;;;;;;;;;5083794;28;20181;-44
2024/02/04 04:20:36;;;;;;;231.32;60.63;;;;;;;;;;5083870;28;20162;-44
2024/02/04 04:23:03;;;;;;;228.57;58.57;;;;;;;;;;5084480;28;20650;-44
2024/02/04 04:25:29;;;;;;;230.23;59.85;;;;;;;;;;5087282;28;20495;-44
2024/02/04 04:27:57;;;;;;;227.83;59.13;;;;;;;;;;5088446;28;20268;-44
2024/02/04 04:30:23;;;;;;;229.45;58.47;;;;;;;;;;5076792;28;20409;-44
2024/02/04 04:32:49;;;;;;;229.70;59.60;;;;;;;;;;5091503;28;20285;-44
2024/02/04 04:35:15;;;;;;;229.70;59.10;;;;;;;;;;5087483;28;20265;-44
2024/02/04 04:37:41;;;;;;;229.10;59.87;;;;;;;;;;5087562;28;20462;-45
2024/02/04 04:40:07;;;;;;;229.45;60.15;;;;;;;;;;5085775;28;20413;-45
2024/02/04 04:42:33;;;;;;;230.40;59.65;;;;;;;;;;5084238;28;20182;-44
2024/02/04 04:44:59;;;;;;;229.68;59.80;;;;;;;;;;5084766;28;20202;-44
2024/02/04 04:47:25;;;;;;;230.80;59.50;;;;;;;;;;5092077;28;20214;-46
2024/02/04 04:49:51;;;;;;;228.37;58.73;;;;;;;;;;5078372;28;20413;-45
2024/02/04 04:52:17;;;;;;;227.73;57.60;;;;;;;;;;5083676;28;20431;-44
2024/02/04 04:54:43;;;;;;;230.15;60.78;;;;;;;;;;5086972;28;20418;-44
2024/02/04 04:57:09;;;;;;;231.20;60.90;;;;;;;;;;5075934;28;20286;-44
2024/02/04 04:59:37;;;;;;;231.15;58.97;;;;;;;;;;5083612;28;20183;-44
2024/02/04 05:02:02;;;;;;;228.68;58.72;;;;;;;;;;5086338;28;20201;-44
2024/02/04 05:04:28;;;;;;;229.77;59.67;;;;;;;;;;5090665;28;20176;-44
2024/02/04 05:06:54;;;;;;;229.77;59.00;;;;;;;;;;5091426;28;20774;-45
2024/02/04 05:09:20;;;;;;;230.13;59.10;;;;;;;;;;5081933;28;20827;-44
2024/02/04 05:11:46;;;;;;;228.63;57.47;;;;;;;;;;5082160;28;20216;-44
2024/02/04 05:14:12;;;;;;;231.73;62.33;;;;;;;;;;5086686;28;20431;-44
2024/02/04 05:16:38;;;;;;;229.88;60.20;;;;;;;;;;5086455;28;20992;-44
2024/02/04 05:19:04;;;;;;;228.15;58.45;;;;;;;;;;5086702;28;20295;-44
2024/02/04 05:21:30;;;;;;;229.13;60.17;;;;;;;;;;5090003;28;20277;-45
2024/02/04 05:23:56;;;;;;;228.00;57.77;;;;;;;;;;5090986;28;20414;-45
2024/02/04 05:26:22;;;;;;;229.90;58.87;;;;;;;;;;5075355;28;20537;-44
2024/02/04 05:28:48;;;;;;;229.10;59.97;;;;;;;;;;5087507;28;20775;-45
2024/02/04 05:31:14;;;;;;;227.63;57.43;;;;;;;;;;5077732;28;20488;-44
2024/02/04 05:33:40;;;;;;;240.60;67.50;;;;;;;;;;5087167;22;20549;-45
2024/02/04 05:36:06;;;;;;;229.32;58.25;;;;;;;;;;5023815;28;21020;-44
2024/02/04 05:38:32;;;;;;;229.93;59.30;;;;;;;;;;5015919;28;20203;-44
2024/02/04 05:40:58;;;;;;;228.43;58.57;;;;;;;;;;5022041;28;20175;-44
2024/02/04 05:43:24;;;;;;;231.03;60.30;;;;;;;;;;5028078;28;20907;-46
2024/02/04 05:45:50;;;;;;;229.90;59.27;;;;;;;;;;5026254;28;20917;-46
2024/02/04 05:48:16;;;;;;;230.00;61.47;;;;;;;;;;5020525;28;20910;-45
2024/02/04 05:50:42;;;;;;;229.00;59.37;;;;;;;;;;5020870;28;20780;-46
2024/02/04 05:53:08;;;;;;;232.90;62.58;;;;;;;;;;5023963;28;20892;-46
2024/02/04 05:55:34;;;;;;;231.10;61.00;;;;;;;;;;5025354;28;20271;-46
2024/02/04 05:58:00;;;;;;;233.13;62.23;;;;;;;;;;5023720;28;20415;-45
2024/02/04 06:00:26;;;;;;;228.90;59.77;;;;;;;;;;5026273;28;20422;-46
2024/02/04 06:02:52;;;;;;;231.95;61.88;;;;;;;;;;5024528;28;20410;-45
2024/02/04 06:05:18;;;;;;;228.37;58.50;;;;;;;;;;5018096;28;20281;-46
2024/02/04 06:07:44;;;;;;;228.10;58.83;;;;;;;;;;5025422;28;20897;-46
2024/02/04 06:10:10;;;;;;;230.33;59.47;;;;;;;;;;5023582;28;20188;-46
2024/02/04 06:12:37;;;;;;;231.85;60.53;;;;;;;;;;5024677;28;20478;-46
2024/02/04 06:15:03;;;;;;;229.30;59.47;;;;;;;;;;5022421;28;20667;-46
2024/02/04 06:17:29;;;;;;;229.20;59.25;;;;;;;;;;5023712;28;20211;-46
2024/02/04 06:19:56;;;;;;;232.17;60.47;;;;;;;;;;5022995;28;20183;-46
2024/02/04 06:22:22;;;;;;;227.80;57.33;;;;;;;;;;5013936;28;20461;-46
2024/02/04 06:24:50;;;;;;;230.80;60.90;;;;;;;;;;5026579;28;20192;-46
2024/02/04 06:27:15;;;;;;;232.52;61.83;;;;;;;;;;5021675;28;20411;-46
2024/02/04 06:29:42;;;;;;;229.97;59.80;;;;;;;;;;5021949;28;20270;-46
2024/02/04 06:32:08;;;;;;;231.02;60.70;;;;;;;;;;5023041;28;20465;-46
2024/02/04 06:34:34;;;;;;;230.25;59.38;;;;;;;;;;5014543;28;20208;-46
2024/02/04 06:36:59;;;;;;;228.47;58.67;;;;;;;;;;5021776;28;20213;-46
2024/02/04 06:39:25;;;;;;;232.07;60.10;;;;;;;;;;5027400;28;20450;-46
2024/02/04 06:41:51;;;;;;;228.37;58.50;;;;;;;;;;5025579;28;20423;-46
2024/02/04 06:44:17;;;;;;;229.95;58.83;;;;;;;;;;5019345;28;20433;-46
2024/02/04 06:46:43;;;;;;;227.30;56.53;;;;;;;;;;5019775;28;20695;-45
2024/02/04 06:49:11;;;;;;;229.93;58.08;;;;;;;;;;5020513;28;20802;-45
2024/02/04 06:51:37;;;;;;;228.00;57.22;;;;;;;;;;5012793;28;20250;-46
2024/02/04 06:54:03;;;;;;;230.77;59.45;;;;;;;;;;5019830;28;20203;-46
2024/02/04 06:56:30;;;;;;;228.47;58.67;;;;;;;;;;5012697;28;20287;-46
2024/02/04 06:58:56;;;;;;;228.55;58.55;;;;;;;;;;5024290;28;21030;-45
2024/02/04 07:01:23;;;;;;;229.43;59.30;;;;;;;;;;5017887;28;20179;-45
2024/02/04 07:03:50;;;;;;;230.75;59.17;;;;;;;;;;5016752;28;20438;-46
2024/02/04 07:06:15;;;;;;;231.05;59.63;;;;;;;;;;5018805;28;20176;-46
2024/02/04 07:08:43;;;;;;;229.10;57.47;;;;;;;;;;5017631;28;20662;-46
2024/02/04 07:11:09;;;;;;;227.95;56.88;;;;;;;;;;5022534;28;20795;-46
2024/02/04 07:13:35;;;;;;;233.37;60.90;;;;;;;;;;5022036;28;20234;-45
2024/02/04 07:16:01;;;;;;;229.37;59.40;;;;;;;;;;5022101;28;20462;-45
2024/02/04 07:18:27;;;;;;;229.03;58.13;;;;;;;;;;5016809;28;20410;-46
2024/02/04 07:20:53;;;;;;;231.00;60.27;;;;;;;;;;5023975;28;20417;-45
2024/02/04 07:23:19;;;;;;;230.38;58.15;;;;;;;;;;5020528;28;21196;-46
2024/02/04 07:25:45;;;;;;;230.37;59.70;;;;;;;;;;5020559;28;20184;-46
2024/02/04 07:28:11;;;;;;;228.82;58.17;;;;;;;;;;5022347;28;20462;-46
2024/02/04 07:30:37;;;;;;;226.47;57.03;;;;;;;;;;5012210;28;20199;-46
2024/02/04 07:33:03;;;;;;;228.95;57.83;;;;;;;;;;5013138;28;20418;-46
2024/02/04 07:35:29;;;;;;;228.50;57.80;;;;;;;;;;5025473;28;20216;-46
2024/02/04 07:37:55;;;;;;;228.82;59.95;;;;;;;;;;5006907;28;20257;-46
2024/02/04 07:40:21;;;;;;;227.97;57.23;;;;;;;;;;5018589;28;20195;-46
2024/02/04 07:42:47;;;;;;;228.77;57.77;;;;;;;;;;5018589;28;20817;-46
2024/02/04 07:45:13;;;;;;;230.57;60.17;;;;;;;;;;5019911;28;20423;-46
2024/02/04 07:47:39;;;;;;;228.97;57.77;;;;;;;;;;5021103;28;20416;-46
2024/02/04 07:50:05;;;;;;;228.50;58.95;;;;;;;;;;5022348;28;20416;-46
2024/02/04 07:52:31;;;;;;;228.57;57.97;;;;;;;;;;5024432;28;20181;-45
2024/02/04 07:54:57;;;;;;;226.83;57.63;;;;;;;;;;5023523;28;20341;-46
2024/02/04 07:57:23;;;;;;;227.23;57.50;;;;;;;;;;5017627;28;20548;-46
2024/02/04 07:59:49;;;;;;;230.53;60.87;;;;;;;;;;5016507;28;20426;-46
2024/02/04 08:02:15;;;;;;;227.83;58.90;;;;;;;;;;5022841;28;20855;-46
2024/02/04 08:04:41;;;;;;;232.97;60.93;;;;;;;;;;5021608;28;20425;-46
2024/02/04 08:07:07;;;;;;;230.90;63.25;;;;;;;;;;5022460;28;20407;-46
2024/02/04 08:09:33;;;;;;;233.02;63.65;;;;;;;;;;5021854;28;20183;-46
2024/02/04 08:11:59;;;;;;;228.07;60.27;;;;;;;;;;5022280;28;20180;-45
2024/02/04 08:14:25;;;;;;;229.33;60.67;;;;;;;;;;5015672;28;20433;-47
2024/02/04 08:16:51;;;;;;;231.27;61.93;;;;;;;;;;5022993;28;20560;-45
2024/02/04 08:21:53;;;;;;;233.70;64.38;;;;;;;;;;5508647;23;20491;-45
2024/02/04 08:24:19;;;;;;;232.57;61.08;;;;;;;;;;4989324;28;20565;-43
2024/02/04 08:26:45;;;;;;;230.83;60.57;;;;;;;;;;4995797;28;20197;-43
2024/02/04 08:29:11;;;;;;;229.73;59.22;;;;;;;;;;4994070;28;20462;-43
2024/02/04 08:31:37;;;;;;;228.23;58.00;;;;;;;;;;4992716;28;20197;-43
2024/02/04 08:34:03;;;;;;;229.07;58.72;;;;;;;;;;4993451;28;20408;-44
2024/02/04 08:36:32;;;;;;;229.17;58.17;;;;;;;;;;4987123;28;20200;-45
2024/02/04 08:38:58;;;;;;;231.90;60.72;;;;;;;;;;4993160;28;20748;-45
2024/02/04 08:41:24;;;;;;;230.93;60.40;;;;;;;;;;4992306;28;20189;-45
2024/02/04 08:43:49;;;;;;;231.37;62.90;;;;;;;;;;4992190;28;20498;-45
2024/02/04 08:46:15;;;;;;;231.97;61.67;;;;;;;;;;4990488;28;20475;-44
2024/02/04 08:48:42;;;;;;;229.60;59.83;;;;;;;;;;4992686;28;20419;-44
2024/02/04 08:51:13;;;;;;;229.55;60.88;;;;;;;;;;4989877;28;20567;-43
2024/02/04 08:53:39;;;;;;;230.25;58.70;;;;;;;;;;4980700;28;20178;-44
2024/02/04 08:56:06;;;;;;;229.27;58.60;;;;;;;;;;4993001;28;20595;-45
2024/02/04 08:58:32;;;;;;;228.50;58.17;;;;;;;;;;4992182;28;20408;-43
2024/02/04 09:00:58;;;;;;;232.10;62.90;;;;;;;;;;4991951;28;20197;-44
2024/02/04 09:03:24;;;;;;;229.30;58.67;;;;;;;;;;4992136;28;20454;-43
2024/02/04 09:05:50;;;;;;;230.65;59.72;;;;;;;;;;4992092;28;20204;-45
2024/02/04 09:08:16;;;;;;;230.30;59.47;;;;;;;;;;4983303;28;20722;-45
2024/02/04 09:10:42;;;;;;;234.67;65.20;;;;;;;;;;4990555;28;20911;-45
2024/02/04 09:13:08;;;;;;;228.13;58.57;;;;;;;;;;4992301;28;20430;-44
2024/02/04 09:15:34;;;;;;;229.70;60.77;;;;;;;;;;4992860;28;20463;-44
2024/02/04 09:18:00;;;;;;;228.47;58.67;;;;;;;;;;4995416;28;20467;-45
2024/02/04 09:20:26;;;;;;;231.20;61.47;;;;;;;;;;4995166;28;20526;-45
2024/02/04 09:22:52;;;;;;;229.73;59.08;;;;;;;;;;4994964;28;20420;-44
2024/02/04 09:25:18;;;;;;;232.88;60.47;;;;;;;;;;4995335;28;20185;-45
2024/02/04 09:27:44;;;;;;;228.83;57.97;;;;;;;;;;4995773;28;20188;-45
2024/02/04 09:30:11;;;;;;;230.40;59.30;;;;;;;;;;4995237;28;20500;-45
2024/02/04 09:32:37;;;;;;;230.02;57.17;;;;;;;;;;4994569;28;20468;-45
2024/02/04 09:35:03;;;;;;;229.60;58.00;;;;;;;;;;4995032;28;20182;-44
2024/02/04 09:37:29;;;;;;;229.07;58.30;;;;;;;;;;4994368;28;20204;-45
2024/02/04 09:39:55;;;;;;;230.57;59.30;;;;;;;;;;4995080;28;20176;-45
2024/02/04 09:42:21;;;;;;;229.33;58.73;;;;;;;;;;4994137;28;20454;-45
2024/02/04 09:44:48;;;;;;;228.52;57.38;;;;;;;;;;4995228;28;20775;-43
2024/02/04 09:47:14;;;;;;;230.55;58.63;;;;;;;;;;4994684;28;20195;-44
2024/02/04 09:49:41;;;;;;;230.10;59.33;;;;;;;;;;4994534;28;20181;-44
2024/02/04 09:52:10;;;;;;;232.80;61.17;;;;;;;;;;4993349;28;20767;-44
2024/02/04 09:54:46;;;;;;;231.75;60.40;;;;;;;;;;4992555;28;20177;-44
2024/02/04 09:57:13;;;;;;;228.35;57.88;;;;;;;;;;4994697;28;20233;-44
2024/02/04 09:59:39;;;;;;;230.63;60.80;;;;;;;;;;4994561;28;20405;-45
2024/02/04 10:02:05;;;;;;;227.27;56.83;;;;;;;;;;4993877;28;20252;-44
2024/02/04 10:04:31;;;;;;;229.25;57.72;;;;;;;;;;4994491;28;20169;-45
2024/02/04 10:06:57;;;;;;;229.35;58.33;;;;;;;;;;4994512;28;20233;-44
2024/02/04 10:09:23;;;;;;;231.47;60.07;;;;;;;;;;4994496;28;20206;-44
2024/02/04 10:11:49;;;;;;;229.83;59.17;;;;;;;;;;4993912;28;20435;-45
2024/02/04 10:14:18;;;;;;;231.67;61.20;;;;;;;;;;4994398;28;20913;-44
2024/02/04 10:16:44;;;;;;;230.57;58.55;;;;;;;;;;4995045;28;20464;-43
2024/02/04 10:19:10;;;;;;;229.10;57.83;;;;;;;;;;4995070;28;20192;-43
2024/02/04 10:21:36;;;;;;;227.97;56.97;;;;;;;;;;4994440;28;20185;-43
2024/02/04 10:24:02;;;;;;;231.07;59.87;;;;;;;;;;4993861;28;20431;-43
2024/02/04 10:26:31;;;;;;;231.63;59.00;;;;;;;;;;4994550;28;20956;-43
2024/02/04 10:28:58;;;;;;;231.32;59.83;;;;;;;;;;4989959;28;20454;-44
2024/02/04 10:31:25;;;;;;;232.77;59.40;;;;;;;;;;4994194;28;20205;-43
2024/02/04 10:33:51;;;;;;;233.50;61.22;;;;;;;;;;4994834;28;20199;-44
2024/02/04 10:36:17;;;;;;;234.13;62.27;;;;;;;;;;4994544;28;20204;-44
2024/02/04 10:38:43;;;;;;;230.23;60.03;;;;;;;;;;4994510;28;20440;-43
2024/02/04 10:41:14;;;;;;;231.05;59.38;;;;;;;;;;4994013;28;20756;-43
2024/02/04 10:43:42;;;;;;;231.77;62.13;;;;;;;;;;4994858;28;20182;-43
2024/02/04 10:46:21;;;;;;;230.73;58.33;;;;;;;;;;4994952;28;20190;-44
2024/02/04 10:48:56;;;;;;;231.10;59.78;;;;;;;;;;4994565;28;20199;-43
2024/02/04 10:51:25;;;;;;;232.60;60.75;;;;;;;;;;4993732;28;20221;-42
2024/02/04 10:53:52;;;;;;;229.68;59.75;;;;;;;;;;4994480;28;20251;-43
2024/02/04 10:56:23;;;;;;;236.45;64.75;;;;;;;;;;4994006;28;20198;-43
2024/02/04 10:58:49;;;;;;;231.70;62.65;;;;;;;;;;4992134;28;20556;-43
2024/02/04 11:01:15;;;;;;;232.38;60.10;;;;;;;;;;4993570;28;20216;-44
2024/02/04 11:03:42;;;;;;;233.30;60.03;;;;;;;;;;5001515;28;20679;-43
2024/02/04 11:06:08;;;;;;;236.70;62.65;;;;;;;;;;4990217;28;20169;-44
2024/02/04 11:08:34;;;;;;;236.60;62.33;;;;;;;;;;4989599;28;20534;-43
2024/02/04 11:11:00;;;;;;;234.40;64.25;;;;;;;;;;4992728;28;20263;-44
2024/02/04 11:13:27;;;;;;;234.13;62.67;;;;;;;;;;4992661;28;20177;-43
2024/02/04 11:15:54;;;;;;;237.40;64.82;;;;;;;;;;4992756;28;20497;-43
2024/02/04 11:18:29;;;;;;;239.10;66.97;;;;;;;;;;4993483;28;20179;-43
2024/02/04 11:21:13;;;;;;;239.50;68.22;;;;;;;;;;4993080;28;20207;-44
2024/02/04 11:23:58;;;;;;;241.88;69.97;;;;;;;;;;4993231;28;20245;-44
2024/02/04 11:26:25;;;;;;;241.00;72.50;;;;;;;;;;4993790;28;20210;-43
2024/02/04 11:28:51;;;;;;;243.73;75.10;;;;;;;;;;4992011;28;20601;-43
2024/02/04 11:31:20;;;;;;;244.10;72.50;;;;;;;;;;4990708;28;20227;-44
2024/02/04 11:33:46;;;;;;;239.10;68.20;;;;;;;;;;4983159;28;20419;-44
2024/02/04 11:36:18;;;;;;;238.70;66.40;;;;;;;;;;4993787;28;20198;-44
2024/02/04 11:38:44;;;;;;;238.10;65.60;;;;;;;;;;4979640;28;20205;-43
2024/02/04 11:41:10;;;;;;;237.48;65.45;;;;;;;;;;4980747;28;20292;-43
2024/02/04 11:43:39;;;;;;;238.25;66.65;;;;;;;;;;4973846;28;20214;-43
2024/02/04 11:46:05;;;;;;;239.25;65.30;;;;;;;;;;4988673;28;20181;-44
2024/02/04 11:48:33;;;;;;;234.88;61.95;;;;;;;;;;4993231;28;20209;-43
2024/02/04 11:51:00;;;;;;;240.23;65.85;;;;;;;;;;4982524;28;20722;-43
2024/02/04 11:53:29;;;;;;;234.52;60.45;;;;;;;;;;4981695;28;20184;-43
2024/02/04 11:55:56;;;;;;;239.48;65.78;;;;;;;;;;4987234;28;20181;-43
2024/02/04 11:58:23;;;;;;;235.90;62.83;;;;;;;;;;4991914;28;20520;-43
2024/02/04 12:00:49;;;;;;;239.48;65.22;;;;;;;;;;4985784;28;20592;-44
2024/02/04 12:03:15;;;;;;;238.40;63.15;;;;;;;;;;4983936;28;20192;-44
2024/02/04 12:05:41;;;;;;;233.15;60.35;;;;;;;;;;4992295;28;20640;-44
2024/02/04 12:08:08;;;;;;;234.75;62.63;;;;;;;;;;4988639;28;20169;-44
2024/02/04 12:10:37;;;;;;;236.25;62.33;;;;;;;;;;4982546;28;20179;-44
2024/02/04 12:13:03;;;;;;;234.57;60.97;;;;;;;;;;4989682;28;20368;-43
2024/02/04 12:15:30;;;;;;;235.00;62.38;;;;;;;;;;4993272;28;20192;-44
2024/02/04 12:17:56;;;;;;;233.13;59.95;;;;;;;;;;4982773;28;20193;-44
2024/02/04 12:20:22;;;;;;;235.60;62.60;;;;;;;;;;4980609;28;20183;-44
2024/02/04 12:22:48;;;;;;;235.30;63.50;;;;;;;;;;4989877;28;20607;-43
2024/02/04 12:25:15;;;;;;;231.73;59.30;;;;;;;;;;4992939;28;20860;-43
2024/02/04 12:27:41;;;;;;;234.57;62.80;;;;;;;;;;4993213;28;20663;-44
2024/02/04 12:30:08;;;;;;;231.57;59.60;;;;;;;;;;4982520;28;20181;-43
2024/02/04 12:32:34;;;;;;;235.52;62.58;;;;;;;;;;4992057;28;20436;-43
2024/02/04 12:35:00;;;;;;;232.70;60.23;;;;;;;;;;4992735;28;20231;-43
2024/02/04 12:37:26;;;;;;;231.67;60.30;;;;;;;;;;4993098;28;20474;-43
2024/02/04 12:39:52;;;;;;;230.95;57.72;;;;;;;;;;4993213;28;20407;-43
2024/02/04 12:42:19;;;;;;;234.67;61.07;;;;;;;;;;4991391;28;20201;-45
2024/02/04 12:44:47;;;;;;;230.15;57.85;;;;;;;;;;4992032;28;20412;-44
2024/02/04 12:47:13;;;;;;;232.80;59.75;;;;;;;;;;4991955;28;20607;-45
2024/02/04 12:49:39;;;;;;;233.17;60.37;;;;;;;;;;4991955;28;20170;-44
2024/02/04 12:52:06;;;;;;;233.25;60.38;;;;;;;;;;4994203;28;20442;-44
2024/02/04 12:54:40;;;;;;;232.35;59.65;;;;;;;;;;4988038;28;20166;-45
2024/02/04 12:57:07;;;;;;;231.55;58.13;;;;;;;;;;4995628;28;20223;-44
2024/02/04 12:59:36;;;;;;;229.93;55.45;;;;;;;;;;4995552;28;20167;-43
2024/02/04 13:02:06;;;;;;;234.18;59.42;;;;;;;;;;4994989;28;20201;-43
2024/02/04 13:04:36;;;;;;;235.40;62.47;;;;;;;;;;4985979;28;20259;-43
2024/02/04 13:07:02;;;;;;;232.43;58.13;;;;;;;;;;4991936;28;20266;-43
2024/02/04 13:09:28;;;;;;;234.60;61.55;;;;;;;;;;4995396;28;20698;-44
2024/02/04 13:12:02;;;;;;;233.27;60.27;;;;;;;;;;4994577;28;20205;-44
2024/02/04 13:14:28;;;;;;;232.00;57.60;;;;;;;;;;4995650;28;20741;-45
2024/02/04 13:16:54;;;;;;;233.17;60.80;;;;;;;;;;4995174;28;20204;-45
2024/02/04 13:19:20;;;;;;;234.50;61.77;;;;;;;;;;4995217;28;20401;-44
2024/02/04 13:21:46;;;;;;;233.03;60.80;;;;;;;;;;4994456;28;20456;-44
2024/02/04 13:24:12;;;;;;;232.27;58.17;;;;;;;;;;4994751;28;20427;-46
2024/02/04 13:26:38;;;;;;;231.20;58.53;;;;;;;;;;4995116;28;20413;-45
2024/02/04 13:29:04;;;;;;;232.37;59.37;;;;;;;;;;4995162;28;20502;-45
2024/02/04 13:31:30;;;;;;;235.73;60.37;;;;;;;;;;4994386;28;20441;-45
2024/02/04 13:33:56;;;;;;;231.57;58.37;;;;;;;;;;4993840;28;20930;-45
2024/02/04 13:36:22;;;;;;;234.93;62.22;;;;;;;;;;4984016;28;20462;-45
2024/02/04 13:38:48;;;;;;;233.82;60.60;;;;;;;;;;4989901;28;20654;-44
2024/02/04 13:41:14;;;;;;;234.53;63.00;;;;;;;;;;4991296;28;20212;-45
2024/02/04 13:43:40;;;;;;;233.90;61.90;;;;;;;;;;4992307;28;20829;-44
2024/02/04 13:46:06;;;;;;;233.75;60.75;;;;;;;;;;4994818;28;20447;-43
2024/02/04 13:48:32;;;;;;;230.15;58.17;;;;;;;;;;4988891;28;20169;-44
2024/02/04 13:50:59;;;;;;;231.17;57.57;;;;;;;;;;4994200;28;20255;-45
2024/02/04 13:53:25;;;;;;;230.45;56.53;;;;;;;;;;4992973;28;20965;-43
2024/02/04 13:55:51;;;;;;;231.20;57.70;;;;;;;;;;4994829;28;20211;-45
2024/02/04 13:58:18;;;;;;;231.98;57.67;;;;;;;;;;4994667;28;20468;-45
2024/02/04 14:00:44;;;;;;;238.00;65.07;;;;;;;;;;4993950;28;20191;-45
2024/02/04 14:03:12;;;;;;;233.37;59.77;;;;;;;;;;4994142;28;20179;-45